Time;durP1;ratioP1;P1;durP2;ratioP2;P2;SDS_P1;SDS_P2;PMS_P1;PMS_P2;Temp;Humidity;BMP_temperature;BMP_pressure;BME280_temperature;BME280_humidity;BME280_pressure;Samples;Min_cycle;Max_cycle;Signal;HPM_P1;HPM_P2
2021/09/20 00:05:54;;;;;;;20.70;11.48;;;;;;;15.19;100.00;99020.31;4401230;79;28466;-81
2021/09/20 00:11:55;;;;;;;21.23;11.05;;;;;;;15.34;100.00;99016.88;4356107;80;28509;-81
2021/09/20 00:17:57;;;;;;;19.92;10.98;;;;;;;15.29;100.00;99020.93;4340645;80;28502;-80
2021/09/20 00:23:58;;;;;;;18.57;10.03;;;;;;;15.26;100.00;99014.69;4340646;80;28511;-80
2021/09/20 00:30:00;;;;;;;19.30;9.95;;;;;;;15.44;100.00;99015.30;4361627;80;28483;-80
2021/09/20 00:36:03;;;;;;;14.95;8.60;;;;;;;15.10;100.00;99021.92;4373475;80;28523;-79
2021/09/20 00:42:05;;;;;;;16.15;8.10;;;;;;;15.14;100.00;99024.89;4373157;80;28535;-79
2021/09/20 00:48:07;;;;;;;17.10;8.63;;;;;;;15.21;100.00;99011.14;4378124;80;28533;-79
2021/09/20 00:54:08;;;;;;;16.77;9.28;;;;;;;15.21;100.00;99013.85;4374039;80;28475;-78
2021/09/20 01:00:11;;;;;;;17.70;9.53;;;;;;;15.29;100.00;99011.45;4341347;80;28529;-81
2021/09/20 01:06:12;;;;;;;17.90;8.95;;;;;;;14.89;100.00;99010.13;4314399;80;28461;-79
2021/09/20 01:12:14;;;;;;;20.12;9.90;;;;;;;15.18;100.00;99011.13;4405869;79;28489;-82
2021/09/20 01:18:15;;;;;;;17.23;9.78;;;;;;;15.06;100.00;99014.02;4351119;80;28490;-81
2021/09/20 01:24:17;;;;;;;19.45;10.72;;;;;;;15.16;100.00;99022.76;4343555;80;28449;-81
2021/09/20 01:30:18;;;;;;;19.87;9.35;;;;;;;15.15;100.00;99021.10;4351388;80;28548;-82
2021/09/20 01:36:20;;;;;;;17.55;9.85;;;;;;;14.87;100.00;99021.75;4408447;79;28489;-78
2021/09/20 01:42:21;;;;;;;15.30;8.83;;;;;;;15.01;100.00;99024.28;4386450;79;28475;-79
2021/09/20 01:48:23;;;;;;;16.15;8.83;;;;;;;14.89;100.00;99018.24;4384076;79;28498;-78
2021/09/20 01:54:25;;;;;;;13.18;6.50;;;;;;;14.89;100.00;99023.66;4373448;78;28477;-78
2021/09/20 02:00:26;;;;;;;9.30;6.28;;;;;;;15.02;100.00;99015.08;4371508;79;28528;-80
2021/09/20 02:06:27;;;;;;;13.72;7.47;;;;;;;14.98;100.00;99021.27;4375641;79;28444;-78
2021/09/20 02:12:29;;;;;;;13.30;7.40;;;;;;;14.96;100.00;99018.84;4383867;79;28517;-78
2021/09/20 02:18:30;;;;;;;12.70;6.80;;;;;;;14.99;100.00;99018.31;4378980;79;28489;-81
2021/09/20 02:24:32;;;;;;;11.20;6.95;;;;;;;15.07;100.00;99017.00;4372296;79;28493;-77
2021/09/20 02:30:33;;;;;;;12.90;7.45;;;;;;;15.11;100.00;99025.42;4391519;79;28482;-79
2021/09/20 02:36:35;;;;;;;11.10;6.60;;;;;;;15.14;100.00;99018.95;4339334;80;28540;-79
2021/09/20 02:42:36;;;;;;;12.23;7.03;;;;;;;15.13;100.00;99019.20;4368737;80;28444;-80
2021/09/20 02:48:38;;;;;;;12.70;7.45;;;;;;;15.13;100.00;99017.84;4339996;80;28484;-80
2021/09/20 02:54:39;;;;;;;13.32;7.67;;;;;;;15.14;100.00;99012.70;4335427;80;28499;-80
2021/09/20 03:00:41;;;;;;;12.05;8.05;;;;;;;15.10;100.00;99011.61;4348224;80;28478;-79
2021/09/20 03:06:42;;;;;;;14.33;7.17;;;;;;;14.94;100.00;99016.11;4325934;80;28507;-80
2021/09/20 03:12:43;;;;;;;12.40;7.33;;;;;;;14.87;100.00;99019.05;4384053;80;28547;-80
2021/09/20 03:18:45;;;;;;;15.10;8.85;;;;;;;14.90;100.00;99010.40;4354698;80;28453;-78
2021/09/20 03:24:46;;;;;;;14.55;8.83;;;;;;;14.69;100.00;99014.28;4358369;80;28552;-79
2021/09/20 03:30:47;;;;;;;13.43;8.25;;;;;;;14.56;100.00;99018.23;4309717;81;28620;-78
2021/09/20 03:36:49;;;;;;;14.28;7.78;;;;;;;14.61;100.00;99020.16;4435271;79;28547;-79
2021/09/20 03:42:50;;;;;;;13.03;7.65;;;;;;;14.57;100.00;99021.21;4369261;81;28462;-80
2021/09/20 03:48:52;;;;;;;15.35;8.10;;;;;;;14.59;100.00;99022.31;4381143;81;28510;-79
2021/09/20 03:54:54;;;;;;;12.85;7.97;;;;;;;14.70;100.00;99022.67;4390459;80;28461;-79
2021/09/20 04:00:55;;;;;;;11.85;6.83;;;;;;;14.64;100.00;99026.44;4419231;79;28972;-80
2021/09/20 04:06:57;;;;;;;9.40;6.40;;;;;;;14.61;100.00;99030.46;4348104;80;28470;-79
2021/09/20 04:12:58;;;;;;;12.58;7.35;;;;;;;14.70;100.00;99036.76;4446528;80;28503;-79
2021/09/20 04:18:59;;;;;;;12.85;7.40;;;;;;;14.51;100.00;99038.48;4369408;81;28488;-82
2021/09/20 04:25:01;;;;;;;11.30;6.35;;;;;;;14.64;100.00;99035.91;4449140;79;28520;-81
2021/09/20 04:31:02;;;;;;;8.53;5.58;;;;;;;14.52;100.00;99043.34;4407460;78;28525;-81
2021/09/20 04:37:03;;;;;;;9.33;5.85;;;;;;;14.72;100.00;99048.97;4417590;79;28611;-80
2021/09/20 04:43:09;;;;;;;10.72;6.67;;;;;;;14.89;100.00;99048.84;4356991;79;28468;-80
2021/09/20 04:49:10;;;;;;;11.95;7.37;;;;;;;14.77;100.00;99048.19;4345875;81;28488;-79
2021/09/20 04:55:12;;;;;;;12.70;6.37;;;;;;;14.76;100.00;99052.80;4343433;81;28459;-79
2021/09/20 05:01:13;;;;;;;10.48;6.70;;;;;;;14.82;100.00;99049.59;4399212;80;28524;-79
2021/09/20 05:07:14;;;;;;;9.38;6.37;;;;;;;14.96;100.00;99047.80;4398656;81;28593;-80
2021/09/20 05:13:15;;;;;;;11.08;7.00;;;;;;;15.16;100.00;99062.83;4380815;79;28536;-79
2021/09/20 05:19:17;;;;;;;11.50;5.42;;;;;;;14.96;100.00;99075.70;4395271;79;28441;-80
2021/09/20 05:25:19;;;;;;;9.18;5.00;;;;;;;14.78;100.00;99084.48;4398668;81;28556;-82
2021/09/20 05:31:20;;;;;;;10.03;6.42;;;;;;;14.78;100.00;99078.23;4368524;81;28596;-83
2021/09/20 05:37:21;;;;;;;13.00;6.75;;;;;;;14.90;100.00;99082.13;4354740;81;28480;-83
2021/09/20 05:43:24;;;;;;;11.70;6.00;;;;;;;15.02;100.00;99084.11;4371061;81;28546;-83
2021/09/20 05:49:25;;;;;;;5.80;4.10;;;;;;;15.23;100.00;99086.97;4373804;81;28569;-81
2021/09/20 05:55:27;;;;;;;8.95;6.15;;;;;;;15.51;100.00;99080.91;4438638;79;28494;-83
2021/09/20 06:01:29;;;;;;;7.83;5.72;;;;;;;15.31;100.00;99083.77;4417495;79;28491;-85
2021/09/20 06:07:30;;;;;;;7.58;4.33;;;;;;;15.16;100.00;99085.84;4387691;81;28476;-85
2021/09/20 06:13:32;;;;;;;6.35;4.83;;;;;;;15.09;100.00;99089.30;4387432;80;28530;-84
2021/09/20 06:19:33;;;;;;;9.53;5.55;;;;;;;14.67;100.00;99093.55;4393971;81;28537;-83
2021/09/20 06:25:35;;;;;;;10.25;5.65;;;;;;;14.71;100.00;99096.56;4407888;81;28469;-84
2021/09/20 06:31:37;;;;;;;7.78;4.83;;;;;;;14.68;100.00;99099.77;4406430;80;28464;-84
2021/09/20 06:37:40;;;;;;;10.00;5.83;;;;;;;14.82;100.00;99102.37;4296900;83;28514;-84
2021/09/20 06:43:41;;;;;;;10.68;5.03;;;;;;;14.13;100.00;99105.17;4290044;83;28519;-85
2021/09/20 06:49:42;;;;;;;7.65;4.72;;;;;;;14.03;100.00;99107.23;4302304;80;28505;-84
2021/09/20 06:55:43;;;;;;;7.67;4.65;;;;;;;14.24;100.00;99106.11;4363981;80;28421;-84
2021/09/20 07:01:45;;;;;;;7.90;4.95;;;;;;;14.48;100.00;99111.50;4371545;81;28454;-84
2021/09/20 07:07:47;;;;;;;8.48;4.28;;;;;;;14.33;100.00;99114.06;4365111;82;28659;-85
2021/09/20 07:13:48;;;;;;;8.68;5.35;;;;;;;14.51;100.00;99119.64;4371283;81;28541;-84
2021/09/20 07:19:49;;;;;;;7.83;4.95;;;;;;;14.62;100.00;99124.09;4364294;82;28518;-84
2021/09/20 07:25:50;;;;;;;7.05;4.60;;;;;;;14.53;100.00;99132.37;4327166;80;28516;-84
2021/09/20 07:31:52;;;;;;;9.08;5.55;;;;;;;14.40;100.00;99139.55;4363410;79;28446;-83
2021/09/20 07:37:55;;;;;;;8.90;5.67;;;;;;;14.40;100.00;99134.94;4357851;80;28514;-84
2021/09/20 07:43:57;;;;;;;7.35;4.78;;;;;;;14.94;100.00;99136.58;4393880;80;28452;-85
2021/09/20 07:49:58;;;;;;;6.90;5.30;;;;;;;15.12;100.00;99138.90;4372589;80;28507;-83
2021/09/20 07:55:59;;;;;;;7.67;5.10;;;;;;;14.88;100.00;99141.13;4363808;82;28539;-83
2021/09/20 08:02:01;;;;;;;7.12;4.83;;;;;;;15.54;99.96;99145.41;4368744;80;28513;-84
2021/09/20 08:08:03;;;;;;;6.80;4.05;;;;;;;15.68;94.19;99150.39;4430693;80;28555;-83
2021/09/20 08:14:04;;;;;;;6.65;4.65;;;;;;;15.52;92.71;99155.70;4429805;79;28482;-84
2021/09/20 08:20:08;;;;;;;8.20;4.85;;;;;;;15.89;92.86;99160.78;4419837;80;28427;-84
2021/09/20 08:26:10;;;;;;;8.08;4.90;;;;;;;16.06;95.62;99161.17;4375452;80;28469;-84
2021/09/20 08:32:11;;;;;;;7.25;4.22;;;;;;;16.18;95.62;99169.91;4376822;80;28541;-84
2021/09/20 08:38:12;;;;;;;4.35;2.40;;;;;;;16.48;96.99;99159.41;4361241;81;28481;-84
2021/09/20 08:44:14;;;;;;;7.53;4.30;;;;;;;14.92;87.61;99169.30;4283811;81;28435;-88
2021/09/20 08:50:20;;;;;;;7.03;4.53;;;;;;;14.93;100.00;99176.91;4350180;80;28462;-83
2021/09/20 08:56:21;;;;;;;9.28;3.60;;;;;;;14.70;100.00;99178.83;4292808;81;28615;-85
2021/09/20 09:02:25;;;;;;;7.70;4.12;;;;;;;13.96;100.00;99203.38;4344642;80;28465;-84
2021/09/20 09:08:36;;;;;;;6.45;3.95;;;;;;;13.17;100.00;99217.25;4277692;81;28476;-81
2021/09/20 09:14:51;;;;;;;5.42;3.50;;;;;;;13.91;100.00;99221.69;4270235;81;28480;-86
2021/09/20 09:20:53;;;;;;;4.83;3.37;;;;;;;12.85;100.00;99213.72;4379077;80;35085;-84
2021/09/20 09:27:00;;;;;;;5.03;3.60;;;;;;;13.66;100.00;99214.03;4293017;81;28499;-87
2021/09/20 09:33:18;;;;;;;6.58;3.92;;;;;;;14.03;100.00;99213.45;4361192;80;28540;-89
2021/09/20 09:39:29;;;;;;;4.22;3.30;;;;;;;14.30;99.91;99216.79;4367086;81;28496;-89
2021/09/20 09:45:33;;;;;;;4.90;3.50;;;;;;;14.26;100.00;99224.30;4355836;80;28485;-90
2021/09/20 09:52:10;;;;;;;5.87;4.00;;;;;;;15.00;95.41;99222.19;4411477;78;28546;-89
2021/09/20 09:58:11;;;;;;;5.58;3.75;;;;;;;14.87;92.92;99224.21;4411895;78;28551;-89
2021/09/20 10:04:30;;;;;;;6.45;4.03;;;;;;;15.30;86.97;99212.69;4422684;78;28504;-89
2021/09/20 10:10:31;;;;;;;5.30;3.80;;;;;;;14.21;97.00;99235.34;4427980;78;28485;-89
2021/09/20 10:16:34;;;;;;;7.35;3.83;;;;;;;13.09;100.00;99245.47;4432155;78;28492;-89
2021/09/20 10:22:35;;;;;;;6.85;3.80;;;;;;;13.58;100.00;99244.16;4418227;78;28483;-89
2021/09/20 10:28:37;;;;;;;5.08;3.22;;;;;;;13.84;92.33;99263.45;4442247;78;28478;-85
2021/09/20 10:34:38;;;;;;;5.15;3.60;;;;;;;13.78;92.06;99254.45;4473090;78;28554;-85
2021/09/20 10:40:40;;;;;;;5.75;4.12;;;;;;;14.62;81.27;99243.14;4415403;79;28441;-87
2021/09/20 10:46:42;;;;;;;5.37;3.10;;;;;;;14.94;80.00;99247.02;4414810;79;28477;-87
2021/09/20 10:53:34;;;;;;;6.42;2.98;;;;;;;13.98;81.99;99255.82;4422667;79;28549;-89
2021/09/20 10:59:36;;;;;;;8.83;3.05;;;;;;;14.99;75.64;99243.54;4413860;79;28512;-88
2021/09/20 11:05:37;;;;;;;2.60;1.40;;;;;;;15.11;75.58;99262.35;4409881;79;28473;-87
2021/09/20 11:11:44;;;;;;;2.20;1.12;;;;;;;14.06;72.98;99268.92;4410777;79;28449;-85
2021/09/20 11:17:48;;;;;;;2.02;1.10;;;;;;;14.08;70.96;99264.08;4415680;79;28505;-83
2021/09/20 11:23:51;;;;;;;1.50;1.10;;;;;;;14.52;69.14;99262.47;4414128;79;28488;-85
2021/09/20 11:30:11;;;;;;;3.70;1.45;;;;;;;13.91;75.61;99279.80;4416460;79;28484;-85
2021/09/20 11:36:28;;;;;;;1.98;1.40;;;;;;;14.11;75.73;99292.51;4412682;78;28496;-84
2021/09/20 11:42:41;;;;;;;2.62;1.30;;;;;;;14.07;75.48;99295.72;4410932;79;28494;-84
2021/09/20 11:48:42;;;;;;;2.77;1.40;;;;;;;14.05;71.61;99298.38;4379703;78;28518;-87
2021/09/20 11:54:48;;;;;;;1.47;0.98;;;;;;;14.56;66.75;99288.77;4412482;78;28495;-85
2021/09/20 12:00:50;;;;;;;3.70;1.40;;;;;;;13.74;68.76;99308.16;4395551;78;28542;-86
2021/09/20 12:06:52;;;;;;;1.45;0.90;;;;;;;14.33;68.31;99307.44;4414488;78;28523;-86
2021/09/20 12:12:57;;;;;;;2.45;1.10;;;;;;;13.66;67.90;99303.19;4411319;78;28457;-83
2021/09/20 12:18:58;;;;;;;1.37;0.98;;;;;;;14.50;69.15;99306.83;4401479;79;28541;-85
2021/09/20 12:25:20;;;;;;;1.87;0.72;;;;;;;14.99;66.27;99305.81;4404247;80;28467;-87
2021/09/20 12:31:32;;;;;;;1.70;0.80;;;;;;;14.85;62.71;99291.33;4400655;79;28530;-85
2021/09/20 12:37:34;;;;;;;1.35;0.70;;;;;;;15.27;61.38;99302.59;4397391;78;28526;-87
2021/09/20 12:43:35;;;;;;;2.58;0.98;;;;;;;15.23;60.12;99304.98;4392730;79;28499;-82
2021/09/20 12:49:37;;;;;;;1.50;0.90;;;;;;;14.86;61.99;99317.88;4425876;78;28479;-85
2021/09/20 12:55:40;;;;;;;2.58;0.80;;;;;;;15.40;63.09;99312.20;4407379;79;28507;-84
2021/09/20 13:01:55;;;;;;;2.45;1.15;;;;;;;15.08;62.17;99319.19;4436832;78;28456;-85
2021/09/20 13:08:04;;;;;;;1.15;0.90;;;;;;;14.92;65.72;99319.55;4417220;78;28565;-85
2021/09/20 13:14:25;;;;;;;1.85;0.98;;;;;;;15.17;63.40;99323.63;4419221;78;28520;-85
2021/09/20 13:20:33;;;;;;;1.25;1.00;;;;;;;15.48;63.32;99326.09;4420205;78;28526;-85
2021/09/20 13:26:39;;;;;;;2.62;1.20;;;;;;;15.46;62.68;99328.77;4421700;78;28456;-84
2021/09/20 13:32:40;;;;;;;2.15;1.30;;;;;;;15.53;63.25;99328.59;4431386;78;28492;-86
2021/09/20 13:38:45;;;;;;;3.42;1.25;;;;;;;15.55;63.90;99319.11;4420628;78;28517;-85
2021/09/20 13:44:46;;;;;;;1.75;1.37;;;;;;;15.23;67.01;99330.72;4445800;78;28501;-85
2021/09/20 13:50:50;;;;;;;3.15;1.40;;;;;;;15.27;67.76;99329.67;4436068;78;28453;-84
2021/09/20 13:56:51;;;;;;;2.80;1.42;;;;;;;15.38;66.78;99325.19;4430414;78;28474;-85
2021/09/20 14:02:53;;;;;;;1.82;1.40;;;;;;;15.48;67.33;99330.16;4428691;78;28448;-84
2021/09/20 14:08:54;;;;;;;2.45;1.45;;;;;;;15.55;67.78;99334.56;4408897;78;28502;-84
2021/09/20 14:14:56;;;;;;;2.90;1.60;;;;;;;15.58;67.28;99328.09;4428608;78;28546;-85
2021/09/20 14:20:57;;;;;;;3.30;2.15;;;;;;;15.53;68.83;99328.59;4418734;79;28591;-84
2021/09/20 14:26:58;;;;;;;4.85;2.70;;;;;;;15.47;70.28;99331.79;4400844;80;28459;-85
2021/09/20 14:33:00;;;;;;;5.97;2.70;;;;;;;15.35;71.77;99333.29;4418632;79;28585;-83
2021/09/20 14:39:07;;;;;;;4.67;2.75;;;;;;;15.48;71.61;99346.41;4395523;79;28495;-84
2021/09/20 14:45:13;;;;;;;4.80;2.92;;;;;;;15.33;73.61;99351.14;4392748;79;28620;-85
2021/09/20 14:51:16;;;;;;;5.45;3.20;;;;;;;14.76;78.60;99357.80;4340487;80;28443;-85
2021/09/20 14:57:18;;;;;;;5.17;3.40;;;;;;;14.95;79.15;99363.73;4344847;80;28518;-82
2021/09/20 15:03:21;;;;;;;6.90;3.87;;;;;;;14.98;79.23;99361.86;4384309;79;28479;-85
2021/09/20 15:09:22;;;;;;;5.78;3.85;;;;;;;14.86;81.81;99377.42;4384877;80;28495;-81
2021/09/20 15:15:24;;;;;;;5.42;3.40;;;;;;;14.34;84.99;99380.19;4353197;81;28566;-82
2021/09/20 15:21:26;;;;;;;7.47;3.58;;;;;;;14.61;87.00;99384.91;4349341;80;28535;-87
2021/09/20 15:27:27;;;;;;;7.15;4.40;;;;;;;13.95;100.00;99393.63;4319826;80;28510;-86
2021/09/20 15:33:31;;;;;;;7.80;5.17;;;;;;;13.90;100.00;99401.66;4337583;80;28591;-82
2021/09/20 15:39:32;;;;;;;6.00;4.17;;;;;;;14.04;100.00;99402.17;4420647;78;28469;-86
2021/09/20 15:45:34;;;;;;;10.50;3.45;;;;;;;13.65;100.00;99406.37;4412898;78;28538;-87
2021/09/20 15:51:39;;;;;;;7.75;4.30;;;;;;;14.17;100.00;99404.55;4427986;78;28501;-86
2021/09/20 15:57:41;;;;;;;9.23;4.33;;;;;;;14.38;100.00;99403.51;4400158;78;42736;-87
2021/09/20 16:03:42;;;;;;;9.83;4.45;;;;;;;14.51;100.00;99403.70;4353600;80;28568;-85
2021/09/20 16:09:44;;;;;;;8.20;4.87;;;;;;;14.39;100.00;99409.20;4355549;80;28492;-85
2021/09/20 16:15:46;;;;;;;5.75;3.33;;;;;;;14.29;100.00;99423.40;4425279;78;28432;-84
2021/09/20 16:21:47;;;;;;;6.90;3.40;;;;;;;14.21;100.00;99429.21;4349963;80;28564;-84
